Time;durP1;ratioP1;P1;durP2;ratioP2;P2;SDS_P1;SDS_P2;PMS_P1;PMS_P2;Temp;Humidity;BMP_temperature;BMP_pressure;BME280_temperature;BME280_humidity;BME280_pressure;Samples;Min_cycle;Max_cycle;Signal;HPM_P1;HPM_P2
2023/06/27 00:01:04;;;;;;;;;;;;;;;;;;5080695;28;19931;-66
2023/06/27 00:03:30;;;;;;;;;;;;;;;;;;5065904;28;19920;-66
2023/06/27 00:05:59;;;;;;;;;;;;;;;;;;5074005;28;19924;-66
2023/06/27 00:08:24;;;;;;;;;;;;;;;;;;5053143;28;20023;-66
2023/06/27 00:10:50;;;;;;;;;;;;;;;;;;5054564;28;20007;-66
2023/06/27 00:13:16;;;;;;;;;;;;;;;;;;5072518;28;19920;-66
2023/06/27 00:15:42;;;;;;;;;;;;;;;;;;5071612;28;19966;-66
2023/06/27 00:18:08;;;;;;;;;;;;;;;;;;5071932;28;20289;-66
2023/06/27 00:20:34;;;;;;;;;;;;;;;;;;5072796;28;19969;-67
2023/06/27 00:23:00;;;;;;;;;;;;;;;;;;5073307;28;19921;-66
2023/06/27 00:25:26;;;;;;;;;;;;;;;;;;5072000;28;19959;-66
2023/06/27 00:27:53;;;;;;;;;;;;;;;;;;5068727;28;20296;-66
2023/06/27 00:30:21;;;;;;;;;;;;;;;;;;5073524;28;19948;-66
2023/06/27 00:32:47;;;;;;;;;;;;;;;;;;5067728;28;19924;-66
2023/06/27 00:35:12;;;;;;;;;;;;;;;;;;5068750;28;20719;-66
2023/06/27 00:37:38;;;;;;;;;;;;;;;;;;5072334;28;19963;-66
2023/06/27 00:40:04;;;;;;;;;;;;;;;;;;5071624;28;19940;-66
2023/06/27 00:42:30;;;;;;;;;;;;;;;;;;5071820;28;19920;-66
2023/06/27 00:44:56;;;;;;;;;;;;;;;;;;5073445;28;20593;-66
2023/06/27 00:47:22;;;;;;;;;;;;;;;;;;5070706;28;20019;-66
2023/06/27 00:49:48;;;;;;;;;;;;;;;;;;5072475;28;19920;-66
2023/06/27 00:52:14;;;;;;;;;;;;;;;;;;5068496;28;19951;-66
2023/06/27 00:54:40;;;;;;;;;;;;;;;;;;5073754;28;19920;-66
2023/06/27 00:57:05;;;;;;;;;;;;;;;;;;5068253;28;19948;-66
2023/06/27 00:59:31;;;;;;;;;;;;;;;;;;5065766;28;20404;-67
2023/06/27 01:01:57;;;;;;;;;;;;;;;;;;5070198;28;19952;-66
2023/06/27 01:04:23;;;;;;;;;;;;;;;;;;5060664;28;20563;-66
2023/06/27 01:06:52;;;;;;;;;;;;;;;;;;5070889;28;19924;-67
2023/06/27 01:09:18;;;;;;;;;;;;;;;;;;5068879;28;19935;-66
2023/06/27 01:11:44;;;;;;;;;;;;;;;;;;5068280;28;19925;-66
2023/06/27 01:14:10;;;;;;;;;;;;;;;;;;5070729;28;20428;-66
2023/06/27 01:16:35;;;;;;;;;;;;;;;;;;5069162;28;19924;-66
2023/06/27 01:19:02;;;;;;;;;;;;;;;;;;5048016;28;19986;-66
2023/06/27 01:21:28;;;;;;;;;;;;;;;;;;5069595;28;20011;-66
2023/06/27 01:23:54;;;;;;;;;;;;;;;;;;5070029;28;20011;-66
2023/06/27 01:26:20;;;;;;;;;;;;;;;;;;5067677;28;19924;-66
2023/06/27 01:28:46;;;;;;;;;;;;;;;;;;5070534;28;19921;-66
2023/06/27 01:31:12;;;;;;;;;;;;;;;;;;5050632;28;19928;-66
2023/06/27 01:33:39;;;;;;;;;;;;;;;;;;5065250;28;19925;-66
2023/06/27 01:36:05;;;;;;;;;;;;;;;;;;5070530;28;19925;-66
2023/06/27 01:38:30;;;;;;;;;;;;;;;;;;5070820;28;19977;-66
2023/06/27 01:40:58;;;;;;;;;;;;;;;;;;5070233;28;19925;-66
2023/06/27 01:43:24;;;;;;;;;;;;;;;;;;5066779;28;19979;-66
2023/06/27 01:45:50;;;;;;;;;;;;;;;;;;5071236;28;19971;-66
2023/06/27 01:48:16;;;;;;;;;;;;;;;;;;5065955;28;19921;-66
2023/06/27 01:50:42;;;;;;;;;;;;;;;;;;5070146;28;19920;-66
2023/06/27 01:53:08;;;;;;;;;;;;;;;;;;5062798;28;19925;-66
2023/06/27 01:55:34;;;;;;;;;;;;;;;;;;5063986;28;19929;-67
2023/06/27 01:58:00;;;;;;;;;;;;;;;;;;5065705;28;19925;-66
2023/06/27 02:00:26;;;;;;;;;;;;;;;;;;5067711;28;19920;-66
2023/06/27 02:02:52;;;;;;;;;;;;;;;;;;5069758;28;20290;-66
2023/06/27 02:05:18;;;;;;;;;;;;;;;;;;5070413;28;20329;-66
2023/06/27 02:07:44;;;;;;;;;;;;;;;;;;5068621;28;19924;-67
2023/06/27 02:10:10;;;;;;;;;;;;;;;;;;5068643;28;19928;-67
2023/06/27 02:12:36;;;;;;;;;;;;;;;;;;5066618;28;19929;-67
2023/06/27 02:15:02;;;;;;;;;;;;;;;;;;5068459;28;19927;-67
2023/06/27 02:17:28;;;;;;;;;;;;;;;;;;5068418;28;19925;-67
2023/06/27 02:19:53;;;;;;;;;;;;;;;;;;5068375;28;19978;-67
2023/06/27 02:22:19;;;;;;;;;;;;;;;;;;5070776;28;19924;-66
2023/06/27 02:24:45;;;;;;;;;;;;;;;;;;5069467;28;20011;-67
2023/06/27 02:27:13;;;;;;;;;;;;;;;;;;5070333;28;19927;-66
2023/06/27 02:29:38;;;;;;;;;;;;;;;;;;5067024;28;19947;-66
2023/06/27 02:32:04;;;;;;;;;;;;;;;;;;5067686;28;19932;-66
2023/06/27 02:34:30;;;;;;;;;;;;;;;;;;5065475;28;19920;-66
2023/06/27 02:36:56;;;;;;;;;;;;;;;;;;5069025;28;19936;-66
2023/06/27 02:39:22;;;;;;;;;;;;;;;;;;5070073;28;20370;-66
2023/06/27 02:41:48;;;;;;;;;;;;;;;;;;5069484;28;19927;-66
2023/06/27 02:44:14;;;;;;;;;;;;;;;;;;5062304;28;20465;-66
2023/06/27 02:46:40;;;;;;;;;;;;;;;;;;5070768;28;20011;-66
2023/06/27 02:49:06;;;;;;;;;;;;;;;;;;5071012;28;19960;-67
2023/06/27 02:51:31;;;;;;;;;;;;;;;;;;5068853;28;19924;-66
2023/06/27 02:53:57;;;;;;;;;;;;;;;;;;5071117;28;19927;-66
2023/06/27 02:56:23;;;;;;;;;;;;;;;;;;5069856;28;20254;-66
2023/06/27 02:58:49;;;;;;;;;;;;;;;;;;5069741;28;20349;-66
2023/06/27 03:01:15;;;;;;;;;;;;;;;;;;5068272;28;19927;-66
2023/06/27 03:03:43;;;;;;;;;;;;;;;;;;5069727;28;19920;-66
2023/06/27 03:06:09;;;;;;;;;;;;;;;;;;5069597;28;19920;-66
2023/06/27 03:08:37;;;;;;;;;;;;;;;;;;5070006;28;19932;-66
2023/06/27 03:11:03;;;;;;;;;;;;;;;;;;5068788;28;19924;-66
2023/06/27 03:13:29;;;;;;;;;;;;;;;;;;5067466;28;19920;-66
2023/06/27 03:15:55;;;;;;;;;;;;;;;;;;5065471;28;20383;-66
2023/06/27 03:18:21;;;;;;;;;;;;;;;;;;5062887;28;20102;-67
2023/06/27 03:20:47;;;;;;;;;;;;;;;;;;5060956;28;19924;-66
2023/06/27 03:23:13;;;;;;;;;;;;;;;;;;5057318;28;20435;-66
2023/06/27 03:25:38;;;;;;;;;;;;;;;;;;5068646;28;20364;-66
2023/06/27 03:28:04;;;;;;;;;;;;;;;;;;5068055;28;19973;-66
2023/06/27 03:30:30;;;;;;;;;;;;;;;;;;5049545;28;19924;-66
2023/06/27 03:32:56;;;;;;;;;;;;;;;;;;5071104;28;19997;-66
2023/06/27 03:35:22;;;;;;;;;;;;;;;;;;5066774;28;19921;-66
2023/06/27 03:37:48;;;;;;;;;;;;;;;;;;5071190;28;19940;-66
2023/06/27 03:40:14;;;;;;;;;;;;;;;;;;5071507;28;20011;-66
2023/06/27 03:42:40;;;;;;;;;;;;;;;;;;5054741;28;19959;-66
2023/06/27 03:45:06;;;;;;;;;;;;;;;;;;5072106;28;20380;-66
2023/06/27 03:47:31;;;;;;;;;;;;;;;;;;5069453;28;19929;-66
2023/06/27 03:49:57;;;;;;;;;;;;;;;;;;5067834;28;20289;-66
2023/06/27 03:52:23;;;;;;;;;;;;;;;;;;5073683;28;19924;-66
2023/06/27 03:54:49;;;;;;;;;;;;;;;;;;5070408;28;19974;-67
2023/06/27 03:57:15;;;;;;;;;;;;;;;;;;5069505;28;20568;-66
2023/06/27 03:59:42;;;;;;;;;;;;;;;;;;5066200;28;19924;-66
2023/06/27 04:02:08;;;;;;;;;;;;;;;;;;5065199;28;19952;-66
2023/06/27 04:04:34;;;;;;;;;;;;;;;;;;5066272;28;20612;-66
2023/06/27 04:06:59;;;;;;;;;;;;;;;;;;5052488;28;19924;-66
2023/06/27 04:09:25;;;;;;;;;;;;;;;;;;5072399;28;19959;-66
2023/06/27 04:11:51;;;;;;;;;;;;;;;;;;5061491;28;19921;-67
2023/06/27 04:14:17;;;;;;;;;;;;;;;;;;5067347;28;20343;-66
2023/06/27 04:16:43;;;;;;;;;;;;;;;;;;5066123;28;19928;-67
2023/06/27 04:19:09;;;;;;;;;;;;;;;;;;5066555;28;19928;-66
2023/06/27 04:21:35;;;;;;;;;;;;;;;;;;5062241;28;19975;-66
2023/06/27 04:24:01;;;;;;;;;;;;;;;;;;5070518;28;20271;-67
2023/06/27 04:26:27;;;;;;;;;;;;;;;;;;5072811;28;19920;-66
2023/06/27 04:28:53;;;;;;;;;;;;;;;;;;5068696;28;20058;-66
2023/06/27 04:31:18;;;;;;;;;;;;;;;;;;5083430;28;19955;-66
2023/06/27 04:33:44;;;;;;;;;;;;;;;;;;5071715;28;19928;-66
2023/06/27 04:36:10;;;;;;;;;;;;;;;;;;5069756;28;19924;-66
2023/06/27 04:38:39;;;;;;;;;;;;;;;;;;5069877;28;20408;-66
2023/06/27 04:41:05;;;;;;;;;;;;;;;;;;5069716;28;19928;-66
2023/06/27 04:43:32;;;;;;;;;;;;;;;;;;5070600;28;19920;-66
2023/06/27 04:45:58;;;;;;;;;;;;;;;;;;5063787;28;19924;-66
2023/06/27 04:48:24;;;;;;;;;;;;;;;;;;5070160;28;19971;-66
2023/06/27 04:50:50;;;;;;;;;;;;;;;;;;5071229;28;20400;-66
2023/06/27 04:53:19;;;;;;;;;;;;;;;;;;5070514;28;19972;-66
2023/06/27 04:55:45;;;;;;;;;;;;;;;;;;5062797;28;20384;-66
2023/06/27 04:58:11;;;;;;;;;;;;;;;;;;5072818;28;19978;-66
2023/06/27 05:00:37;;;;;;;;;;;;;;;;;;5070770;28;19924;-66
2023/06/27 05:03:03;;;;;;;;;;;;;;;;;;5069788;28;20027;-66
2023/06/27 05:05:32;;;;;;;;;;;;;;;;;;5072997;28;19920;-66
2023/06/27 05:07:58;;;;;;;;;;;;;;;;;;5071425;28;20055;-66
2023/06/27 05:10:24;;;;;;;;;;;;;;;;;;5068922;28;20027;-66
2023/06/27 05:12:50;;;;;;;;;;;;;;;;;;5086266;28;20269;-66
2023/06/27 05:15:16;;;;;;;;;;;;;;;;;;5070171;28;19947;-67
2023/06/27 05:17:42;;;;;;;;;;;;;;;;;;5071277;28;19924;-66
2023/06/27 05:20:08;;;;;;;;;;;;;;;;;;5073587;28;19928;-66
2023/06/27 05:22:34;;;;;;;;;;;;;;;;;;5073347;28;19924;-66
2023/06/27 05:24:59;;;;;;;;;;;;;;;;;;5073660;28;19920;-66
2023/06/27 05:27:25;;;;;;;;;;;;;;;;;;5067040;28;19966;-66
2023/06/27 05:29:51;;;;;;;;;;;;;;;;;;5073261;28;20416;-67
2023/06/27 05:32:17;;;;;;;;;;;;;;;;;;5070035;28;19924;-71
2023/06/27 05:34:43;;;;;;;;;;;;;;;;;;5071203;28;20336;-67
2023/06/27 05:37:09;;;;;;;;;;;;;;;;;;5072010;28;19925;-67
2023/06/27 05:39:35;;;;;;;;;;;;;;;;;;5072780;28;19935;-67
2023/06/27 05:42:01;;;;;;;;;;;;;;;;;;5070012;28;20019;-67
2023/06/27 05:44:27;;;;;;;;;;;;;;;;;;5063069;28;19947;-67
2023/06/27 05:46:53;;;;;;;;;;;;;;;;;;5067424;28;20021;-67
2023/06/27 05:49:19;;;;;;;;;;;;;;;;;;5072180;28;20376;-67
2023/06/27 05:51:45;;;;;;;;;;;;;;;;;;5069403;22;19925;-63
2023/06/27 05:54:10;;;;;;;;;;;;;;;;;;5051612;28;20441;-63
2023/06/27 05:56:38;;;;;;;;;;;;;;;;;;5052172;28;19921;-63
2023/06/27 05:59:04;;;;;;;;;;;;;;;;;;5032267;28;19924;-63
2023/06/27 06:01:30;;;;;;;;;;;;;;;;;;5038663;28;19928;-63
2023/06/27 06:03:55;;;;;;;;;;;;;;;;;;5050881;28;19935;-63
2023/06/27 06:06:21;;;;;;;;;;;;;;;;;;5049318;28;19925;-64
2023/06/27 06:08:47;;;;;;;;;;;;;;;;;;5016101;28;20332;-64
2023/06/27 06:11:13;;;;;;;;;;;;;;;;;;5051006;28;19928;-64
2023/06/27 06:13:39;;;;;;;;;;;;;;;;;;5032697;28;19930;-64
2023/06/27 06:16:05;;;;;;;;;;;;;;;;;;5028991;28;20404;-64
2023/06/27 06:18:31;;;;;;;;;;;;;;;;;;5043951;28;19925;-64
2023/06/27 06:20:57;;;;;;;;;;;;;;;;;;5040552;28;20263;-64
2023/06/27 06:23:23;;;;;;;;;;;;;;;;;;5049784;28;20027;-64
2023/06/27 06:25:49;;;;;;;;;;;;;;;;;;5051797;28;19925;-64
2023/06/27 06:28:14;;;;;;;;;;;;;;;;;;5048591;28;19952;-64
2023/06/27 06:30:40;;;;;;;;;;;;;;;;;;5047782;28;19931;-63
2023/06/27 06:33:06;;;;;;;;;;;;;;;;;;5048728;28;19951;-64
2023/06/27 06:35:32;;;;;;;;;;;;;;;;;;5042023;28;20347;-64
2023/06/27 06:37:58;;;;;;;;;;;;;;;;;;5026853;28;19929;-64
2023/06/27 06:40:24;;;;;;;;;;;;;;;;;;5045567;28;19921;-64
2023/06/27 06:42:50;;;;;;;;;;;;;;;;;;5031960;28;20008;-64
2023/06/27 06:45:16;;;;;;;;;;;;;;;;;;5052001;28;19932;-64
2023/06/27 06:47:42;;;;;;;;;;;;;;;;;;5051798;28;19924;-64
2023/06/27 06:50:08;;;;;;;;;;;;;;;;;;5033700;28;19946;-64
2023/06/27 06:52:33;;;;;;;;;;;;;;;;;;5015421;28;19933;-63
2023/06/27 06:54:59;;;;;;;;;;;;;;;;;;5050267;28;20266;-63
2023/06/27 06:57:25;;;;;;;;;;;;;;;;;;5048637;28;19928;-63
2023/06/27 06:59:52;;;;;;;;;;;;;;;;;;5047151;28;19925;-63
2023/06/27 07:02:17;;;;;;;;;;;;;;;;;;5048564;28;19925;-63
2023/06/27 07:04:43;;;;;;;;;;;;;;;;;;5023561;28;19970;-63
2023/06/27 07:07:09;;;;;;;;;;;;;;;;;;5041721;28;20374;-63
2023/06/27 07:09:35;;;;;;;;;;;;;;;;;;5047600;28;19924;-63
2023/06/27 07:12:01;;;;;;;;;;;;;;;;;;5037342;28;19925;-63
2023/06/27 07:14:27;;;;;;;;;;;;;;;;;;5046134;28;20021;-63
2023/06/27 07:16:53;;;;;;;;;;;;;;;;;;5043813;28;19921;-63
2023/06/27 07:19:19;;;;;;;;;;;;;;;;;;5051052;28;20007;-63
2023/06/27 07:21:45;;;;;;;;;;;;;;;;;;5023348;28;19938;-63
2023/06/27 07:24:11;;;;;;;;;;;;;;;;;;5042371;28;20047;-63
2023/06/27 07:26:37;;;;;;;;;;;;;;;;;;5033116;28;19943;-63
2023/06/27 07:29:03;;;;;;;;;;;;;;;;;;5033283;28;20437;-63
2023/06/27 07:31:29;;;;;;;;;;;;;;;;;;5030513;28;19921;-63
2023/06/27 07:33:55;;;;;;;;;;;;;;;;;;5039526;28;19931;-63
2023/06/27 07:36:21;;;;;;;;;;;;;;;;;;5049397;28;19925;-63
2023/06/27 07:38:47;;;;;;;;;;;;;;;;;;5038408;28;19952;-63
2023/06/27 07:41:13;;;;;;;;;;;;;;;;;;5049335;28;19963;-63
2023/06/27 07:43:39;;;;;;;;;;;;;;;;;;5046684;28;19921;-63
2023/06/27 07:46:05;;;;;;;;;;;;;;;;;;5022318;28;19921;-63
2023/06/27 07:48:30;;;;;;;;;;;;;;;;;;5034779;28;19931;-63
2023/06/27 07:50:56;;;;;;;;;;;;;;;;;;5031520;28;19929;-63
2023/06/27 07:53:22;;;;;;;;;;;;;;;;;;5041810;28;19925;-63
2023/06/27 07:55:48;;;;;;;;;;;;;;;;;;5050335;28;19952;-62
2023/06/27 07:58:14;;;;;;;;;;;;;;;;;;5045594;28;20288;-63
2023/06/27 08:00:40;;;;;;;;;;;;;;;;;;5047409;28;19929;-63
2023/06/27 08:03:06;;;;;;;;;;;;;;;;;;5050386;28;19973;-63
2023/06/27 08:05:34;;;;;;;;;;;;;;;;;;5035851;28;20374;-63
2023/06/27 08:08:00;;;;;;;;;;;;;;;;;;5047853;28;20061;-63
2023/06/27 08:10:27;;;;;;;;;;;;;;;;;;5046662;28;19929;-62
2023/06/27 08:12:53;;;;;;;;;;;;;;;;;;5044958;28;19976;-63
2023/06/27 08:15:19;;;;;;;;;;;;;;;;;;5043433;28;19967;-62
2023/06/27 08:17:45;;;;;;;;;;;;;;;;;;5045389;28;20052;-62
2023/06/27 08:20:11;;;;;;;;;;;;;;;;;;5033016;28;19971;-62
2023/06/27 08:22:37;;;;;;;;;;;;;;;;;;5053726;28;19921;-63
2023/06/27 08:25:03;;;;;;;;;;;;;;;;;;5051986;28;20366;-63
2023/06/27 08:27:29;;;;;;;;;;;;;;;;;;5034799;28;19972;-63
2023/06/27 08:29:55;;;;;;;;;;;;;;;;;;5050244;28;19928;-63
2023/06/27 08:32:21;;;;;;;;;;;;;;;;;;5043662;28;19925;-63
2023/06/27 08:34:47;;;;;;;;;;;;;;;;;;5038745;28;20566;-62
2023/06/27 08:37:13;;;;;;;;;;;;;;;;;;5048444;28;20400;-62
2023/06/27 08:39:39;;;;;;;;;;;;;;;;;;5031393;28;19921;-62
2023/06/27 08:42:05;;;;;;;;;;;;;;;;;;5051823;28;20487;-63
2023/06/27 08:44:31;;;;;;;;;;;;;;;;;;5050739;28;19924;-62
2023/06/27 08:46:57;;;;;;;;;;;;;;;;;;5051036;28;20378;-62
2023/06/27 08:49:22;;;;;;;;;;;;;;;;;;5041871;28;19925;-62
2023/06/27 08:51:49;;;;;;;;;;;;;;;;;;5029549;28;19928;-62
2023/06/27 08:54:15;;;;;;;;;;;;;;;;;;5036251;28;19943;-62
2023/06/27 08:56:40;;;;;;;;;;;;;;;;;;5050367;28;20359;-62
2023/06/27 08:59:07;;;;;;;;;;;;;;;;;;5050042;28;19924;-63
2023/06/27 09:01:33;;;;;;;;;;;;;;;;;;5047435;28;19931;-62
2023/06/27 09:03:59;;;;;;;;;;;;;;;;;;5050890;28;20302;-63
2023/06/27 09:06:25;;;;;;;;;;;;;;;;;;5047419;28;19934;-63
2023/06/27 09:08:51;;;;;;;;;;;;;;;;;;5053672;28;19929;-62
2023/06/27 09:11:17;;;;;;;;;;;;;;;;;;5048531;28;19920;-62
2023/06/27 09:13:43;;;;;;;;;;;;;;;;;;5017359;28;19921;-63
2023/06/27 09:16:08;;;;;;;;;;;;;;;;;;5051703;28;19920;-63
2023/06/27 09:18:34;;;;;;;;;;;;;;;;;;5050332;28;19932;-62
2023/06/27 09:21:00;;;;;;;;;;;;;;;;;;5048942;28;19921;-62
2023/06/27 09:23:26;;;;;;;;;;;;;;;;;;5046683;28;19936;-62
2023/06/27 09:25:52;;;;;;;;;;;;;;;;;;5052132;28;19921;-62
2023/06/27 09:28:18;;;;;;;;;;;;;;;;;;5044300;28;20397;-63
2023/06/27 09:30:44;;;;;;;;;;;;;;;;;;5041010;28;19925;-63
2023/06/27 09:33:10;;;;;;;;;;;;;;;;;;5052900;28;19956;-63
2023/06/27 09:35:36;;;;;;;;;;;;;;;;;;5052157;28;19995;-63
2023/06/27 09:38:02;;;;;;;;;;;;;;;;;;5050257;28;19929;-62
2023/06/27 09:40:28;;;;;;;;;;;;;;;;;;5053265;28;19971;-62
2023/06/27 09:42:54;;;;;;;;;;;;;;;;;;5053164;28;19963;-63
2023/06/27 09:45:20;;;;;;;;;;;;;;;;;;5053186;28;19924;-62
2023/06/27 09:47:45;;;;;;;;;;;;;;;;;;5053247;28;19928;-62
2023/06/27 09:50:11;;;;;;;;;;;;;;;;;;5051138;28;19929;-62
2023/06/27 09:52:37;;;;;;;;;;;;;;;;;;5049690;28;19925;-62
2023/06/27 09:55:03;;;;;;;;;;;;;;;;;;5039611;28;19976;-62
2023/06/27 09:57:29;;;;;;;;;;;;;;;;;;5028085;28;20984;-63
2023/06/27 09:59:55;;;;;;;;;;;;;;;;;;5050459;28;19925;-63
2023/06/27 10:02:21;;;;;;;;;;;;;;;;;;5030335;28;19920;-63
2023/06/27 10:04:47;;;;;;;;;;;;;;;;;;5049138;28;19928;-62
2023/06/27 10:07:14;;;;;;;;;;;;;;;;;;5050644;28;19995;-63
2023/06/27 10:09:40;;;;;;;;;;;;;;;;;;5043462;28;20390;-63
2023/06/27 10:12:07;;;;;;;;;;;;;;;;;;5047558;28;19928;-63
2023/06/27 10:14:32;;;;;;;;;;;;;;;;;;5043523;28;21983;-62
2023/06/27 10:16:58;;;;;;;;;;;;;;;;;;5023257;28;20077;-63
2023/06/27 10:19:24;;;;;;;;;;;;;;;;;;5044094;28;19963;-62
2023/06/27 10:21:50;;;;;;;;;;;;;;;;;;5046804;28;19925;-63
2023/06/27 10:24:16;;;;;;;;;;;;;;;;;;5041567;28;19932;-63
2023/06/27 10:26:42;;;;;;;;;;;;;;;;;;5041549;28;19939;-62
2023/06/27 10:29:08;;;;;;;;;;;;;;;;;;5043968;28;19925;-62
2023/06/27 10:31:34;;;;;;;;;;;;;;;;;;5044824;28;19950;-62
2023/06/27 10:34:00;;;;;;;;;;;;;;;;;;5046240;28;19971;-62
2023/06/27 10:36:26;;;;;;;;;;;;;;;;;;5046250;28;20723;-62
2023/06/27 10:38:53;;;;;;;;;;;;;;;;;;5049603;28;19928;-62
2023/06/27 10:41:19;;;;;;;;;;;;;;;;;;5044129;28;19928;-62
2023/06/27 10:43:45;;;;;;;;;;;;;;;;;;5030377;28;19929;-63
2023/06/27 10:46:11;;;;;;;;;;;;;;;;;;5048755;28;19920;-63
2023/06/27 10:48:37;;;;;;;;;;;;;;;;;;5028036;28;20061;-62
2023/06/27 10:51:03;;;;;;;;;;;;;;;;;;5046838;28;19933;-62
2023/06/27 10:53:29;;;;;;;;;;;;;;;;;;5046464;28;19925;-62
2023/06/27 10:55:55;;;;;;;;;;;;;;;;;;5044352;28;19928;-62
2023/06/27 10:58:26;;;;;;;;;;;;;;;;;;5022658;28;20283;-62
2023/06/27 11:00:54;;;;;;;;;;;;;;;;;;5039222;28;22513;-62
2023/06/27 11:03:22;;;;;;;;;;;;;;;;;;5042617;28;19921;-62
2023/06/27 11:05:50;;;;;;;;;;;;;;;;;;5018150;28;19927;-63
2023/06/27 11:08:17;;;;;;;;;;;;;;;;;;5047652;28;19967;-63
2023/06/27 11:10:43;;;;;;;;;;;;;;;;;;4995199;28;19990;-62
2023/06/27 11:13:09;;;;;;;;;;;;;;;;;;5018324;28;20346;-62
2023/06/27 11:15:35;;;;;;;;;;;;;;;;;;5025043;28;19940;-62
2023/06/27 11:18:01;;;;;;;;;;;;;;;;;;5043925;28;19928;-62
2023/06/27 11:20:27;;;;;;;;;;;;;;;;;;5050400;28;20345;-62
2023/06/27 11:22:53;;;;;;;;;;;;;;;;;;5040435;28;20012;-63
2023/06/27 11:25:19;;;;;;;;;;;;;;;;;;5042710;28;20027;-62
2023/06/27 11:27:45;;;;;;;;;;;;;;;;;;5033529;28;19932;-63
2023/06/27 11:30:10;;;;;;;;;;;;;;;;;;5039924;28;19955;-63
2023/06/27 11:32:36;;;;;;;;;;;;;;;;;;5036330;28;20007;-63
2023/06/27 11:35:02;;;;;;;;;;;;;;;;;;5043513;28;19924;-63
2023/06/27 11:37:28;;;;;;;;;;;;;;;;;;5047970;28;19931;-63
2023/06/27 11:39:55;;;;;;;;;;;;;;;;;;5047041;28;19928;-63
2023/06/27 11:42:21;;;;;;;;;;;;;;;;;;5040315;28;19929;-63
2023/06/27 11:44:47;;;;;;;;;;;;;;;;;;5034092;28;20723;-63
2023/06/27 11:47:13;;;;;;;;;;;;;;;;;;5034830;28;20346;-63
2023/06/27 11:49:39;;;;;;;;;;;;;;;;;;5047440;28;19920;-63
2023/06/27 11:52:05;;;;;;;;;;;;;;;;;;5050367;28;19928;-63
2023/06/27 11:54:30;;;;;;;;;;;;;;;;;;5049769;28;19971;-63
2023/06/27 11:56:56;;;;;;;;;;;;;;;;;;5050993;28;20261;-63
2023/06/27 11:59:22;;;;;;;;;;;;;;;;;;5049333;28;19928;-63
2023/06/27 12:01:48;;;;;;;;;;;;;;;;;;5050562;28;19942;-63
2023/06/27 12:04:14;;;;;;;;;;;;;;;;;;5036759;28;19971;-63
2023/06/27 12:06:40;;;;;;;;;;;;;;;;;;5051929;28;19960;-63
2023/06/27 12:09:06;;;;;;;;;;;;;;;;;;5052341;28;19921;-63
2023/06/27 12:11:34;;;;;;;;;;;;;;;;;;5052451;28;19920;-63
2023/06/27 12:14:00;;;;;;;;;;;;;;;;;;5052090;28;19921;-63
2023/06/27 12:16:27;;;;;;;;;;;;;;;;;;5027691;28;19925;-63
2023/06/27 12:18:53;;;;;;;;;;;;;;;;;;5052644;28;19931;-63
2023/06/27 12:21:19;;;;;;;;;;;;;;;;;;5053162;28;20277;-63
2023/06/27 12:23:45;;;;;;;;;;;;;;;;;;5052992;28;20378;-63
2023/06/27 12:26:11;;;;;;;;;;;;;;;;;;5053003;28;20010;-63
2023/06/27 12:28:37;;;;;;;;;;;;;;;;;;5038146;28;19920;-63
2023/06/27 12:31:03;;;;;;;;;;;;;;;;;;5039297;28;19921;-63
2023/06/27 12:33:28;;;;;;;;;;;;;;;;;;5050593;28;19931;-63
2023/06/27 12:35:54;;;;;;;;;;;;;;;;;;5029747;28;20418;-63
2023/06/27 12:38:20;;;;;;;;;;;;;;;;;;5034320;28;19934;-62
2023/06/27 12:40:46;;;;;;;;;;;;;;;;;;5033522;28;19967;-63
2023/06/27 12:43:12;;;;;;;;;;;;;;;;;;5051170;28;19924;-63
2023/06/27 12:45:38;;;;;;;;;;;;;;;;;;5051873;28;20274;-63
2023/06/27 12:48:04;;;;;;;;;;;;;;;;;;5053634;28;20306;-63
2023/06/27 12:50:30;;;;;;;;;;;;;;;;;;5035319;28;19925;-63
2023/06/27 12:52:56;;;;;;;;;;;;;;;;;;5033730;28;19932;-63
2023/06/27 12:55:22;;;;;;;;;;;;;;;;;;5043530;28;19920;-63
2023/06/27 12:57:48;;;;;;;;;;;;;;;;;;5054011;28;19974;-63
2023/06/27 13:00:20;;;;;;;;;;;;;;;;;;5033127;28;20606;-63
2023/06/27 13:02:46;;;;;;;;;;;;;;;;;;5036292;28;19970;-63
2023/06/27 13:05:13;;;;;;;;;;;;;;;;;;5050448;28;19921;-63
2023/06/27 13:07:39;;;;;;;;;;;;;;;;;;5052502;28;19921;-62
2023/06/27 13:10:06;;;;;;;;;;;;;;;;;;5053687;28;19982;-63
2023/06/27 13:12:32;;;;;;;;;;;;;;;;;;5034132;28;19921;-62
2023/06/27 13:14:57;;;;;;;;;;;;;;;;;;5037799;28;19924;-62
2023/06/27 13:17:23;;;;;;;;;;;;;;;;;;5049304;28;19948;-62
2023/06/27 13:19:49;;;;;;;;;;;;;;;;;;5051287;28;19948;-63
2023/06/27 13:22:15;;;;;;;;;;;;;;;;;;5051212;28;19955;-63
2023/06/27 13:24:41;;;;;;;;;;;;;;;;;;5050530;28;19929;-63
2023/06/27 13:27:07;;;;;;;;;;;;;;;;;;5034279;28;19974;-63
2023/06/27 13:29:33;;;;;;;;;;;;;;;;;;5048494;28;19920;-63
2023/06/27 13:31:59;;;;;;;;;;;;;;;;;;5052891;28;20366;-63
2023/06/27 13:34:25;;;;;;;;;;;;;;;;;;5052710;28;19927;-63
2023/06/27 13:36:51;;;;;;;;;;;;;;;;;;5053229;28;19921;-63
2023/06/27 13:39:19;;;;;;;;;;;;;;;;;;5052101;28;20684;-63
2023/06/27 13:41:45;;;;;;;;;;;;;;;;;;5051080;28;20282;-63
2023/06/27 13:44:11;;;;;;;;;;;;;;;;;;5052561;28;19920;-63
2023/06/27 13:46:37;;;;;;;;;;;;;;;;;;5052855;28;19925;-63
2023/06/27 13:49:08;;;;;;;;;;;;;;;;;;5053025;28;19974;-62
2023/06/27 13:51:34;;;;;;;;;;;;;;;;;;5034557;28;19925;-63
2023/06/27 13:54:00;;;;;;;;;;;;;;;;;;5052988;28;19927;-63
2023/06/27 13:56:26;;;;;;;;;;;;;;;;;;5018349;28;19951;-63
2023/06/27 13:58:52;;;;;;;;;;;;;;;;;;5052453;28;20003;-62
2023/06/27 14:01:17;;;;;;;;;;;;;;;;;;5051958;28;19935;-63
2023/06/27 14:03:43;;;;;;;;;;;;;;;;;;5032618;28;19927;-63
2023/06/27 14:06:09;;;;;;;;;;;;;;;;;;5051072;28;20305;-63
2023/06/27 14:08:35;;;;;;;;;;;;;;;;;;5049834;28;20416;-63
2023/06/27 14:11:01;;;;;;;;;;;;;;;;;;5056706;28;19920;-63
2023/06/27 14:13:27;;;;;;;;;;;;;;;;;;5053112;28;19952;-63
2023/06/27 14:15:53;;;;;;;;;;;;;;;;;;5050563;28;19924;-63
2023/06/27 14:18:19;;;;;;;;;;;;;;;;;;5050764;28;20274;-63
2023/06/27 14:20:45;;;;;;;;;;;;;;;;;;5051538;28;19960;-63
2023/06/27 14:23:11;;;;;;;;;;;;;;;;;;5051526;28;19970;-63
2023/06/27 14:25:37;;;;;;;;;;;;;;;;;;5033447;28;19931;-63
2023/06/27 14:28:03;;;;;;;;;;;;;;;;;;5051239;28;19927;-62
2023/06/27 14:30:29;;;;;;;;;;;;;;;;;;5050979;28;19927;-63
2023/06/27 14:32:56;;;;;;;;;;;;;;;;;;5051770;28;19924;-63
2023/06/27 14:35:22;;;;;;;;;;;;;;;;;;5051802;28;20347;-63
2023/06/27 14:37:48;;;;;;;;;;;;;;;;;;5052028;28;19935;-62
2023/06/27 14:40:16;;;;;;;;;;;;;;;;;;5051298;28;19925;-63
2023/06/27 14:42:42;;;;;;;;;;;;;;;;;;5024900;28;19925;-62
2023/06/27 14:45:08;;;;;;;;;;;;;;;;;;5021035;28;19943;-63
2023/06/27 14:47:34;;;;;;;;;;;;;;;;;;5041722;28;20275;-63
2023/06/27 14:50:01;;;;;;;;;;;;;;;;;;5045659;28;19982;-63
2023/06/27 14:52:27;;;;;;;;;;;;;;;;;;5051529;28;19937;-63
2023/06/27 14:54:52;;;;;;;;;;;;;;;;;;5051516;28;19920;-63
2023/06/27 14:57:18;;;;;;;;;;;;;;;;;;5052503;28;19928;-63
2023/06/27 14:59:44;;;;;;;;;;;;;;;;;;5042450;28;19928;-63
2023/06/27 15:02:10;;;;;;;;;;;;;;;;;;5049473;28;20241;-63
2023/06/27 15:04:36;;;;;;;;;;;;;;;;;;5046895;28;19924;-63
2023/06/27 15:07:02;;;;;;;;;;;;;;;;;;5049001;28;19932;-63
2023/06/27 15:09:28;;;;;;;;;;;;;;;;;;5033049;28;19932;-63
2023/06/27 15:11:54;;;;;;;;;;;;;;;;;;5051642;28;19928;-63
2023/06/27 15:14:20;;;;;;;;;;;;;;;;;;5051332;28;19921;-63
2023/06/27 15:16:45;;;;;;;;;;;;;;;;;;5044888;28;20035;-63
2023/06/27 15:19:11;;;;;;;;;;;;;;;;;;5050957;28;19929;-63
2023/06/27 15:21:38;;;;;;;;;;;;;;;;;;5051321;28;19931;-63
2023/06/27 15:24:04;;;;;;;;;;;;;;;;;;5033302;28;19920;-63
2023/06/27 15:26:30;;;;;;;;;;;;;;;;;;5053226;28;19924;-63
2023/06/27 15:28:58;;;;;;;;;;;;;;;;;;5055432;28;20286;-62
2023/06/27 15:31:24;;;;;;;;;;;;;;;;;;5055705;28;19921;-63
2023/06/27 15:33:50;;;;;;;;;;;;;;;;;;5047989;28;19921;-62
2023/06/27 15:36:16;;;;;;;;;;;;;;;;;;5048783;28;19936;-62
2023/06/27 15:38:42;;;;;;;;;;;;;;;;;;5047485;28;19940;-62
2023/06/27 15:41:08;;;;;;;;;;;;;;;;;;5045946;28;19929;-62
2023/06/27 15:43:35;;;;;;;;;;;;;;;;;;5052877;28;19927;-62
2023/06/27 15:46:01;;;;;;;;;;;;;;;;;;5047123;28;20029;-62
2023/06/27 15:48:27;;;;;;;;;;;;;;;;;;5049959;28;19921;-62
2023/06/27 15:50:53;;;;;;;;;;;;;;;;;;5042475;28;19931;-62
2023/06/27 15:53:19;;;;;;;;;;;;;;;;;;5023467;28;19924;-63
2023/06/27 15:55:45;;;;;;;;;;;;;;;;;;5019963;28;19925;-62
2023/06/27 15:58:11;;;;;;;;;;;;;;;;;;5041662;28;20070;-62
2023/06/27 16:00:37;;;;;;;;;;;;;;;;;;5045513;28;19925;-62
2023/06/27 16:03:03;;;;;;;;;;;;;;;;;;5047338;28;19921;-62
2023/06/27 16:05:29;;;;;;;;;;;;;;;;;;5041951;28;19920;-62
2023/06/27 16:07:55;;;;;;;;;;;;;;;;;;5029612;28;19928;-62
2023/06/27 16:10:21;;;;;;;;;;;;;;;;;;5047408;28;20298;-62
2023/06/27 16:12:47;;;;;;;;;;;;;;;;;;5050694;28;19931;-62
2023/06/27 16:15:13;;;;;;;;;;;;;;;;;;5049453;28;19944;-62
2023/06/27 16:17:39;;;;;;;;;;;;;;;;;;5053454;28;20440;-62
2023/06/27 16:20:04;;;;;;;;;;;;;;;;;;5016828;28;19925;-62
2023/06/27 16:22:30;;;;;;;;;;;;;;;;;;5045777;28;19940;-62
2023/06/27 16:24:56;;;;;;;;;;;;;;;;;;5046107;28;19921;-62
2023/06/27 16:27:22;;;;;;;;;;;;;;;;;;5034766;28;19921;-62
2023/06/27 16:29:48;;;;;;;;;;;;;;;;;;5039279;28;19925;-62
2023/06/27 16:32:14;;;;;;;;;;;;;;;;;;5046539;28;20413;-63
2023/06/27 16:34:40;;;;;;;;;;;;;;;;;;5027891;28;20347;-63
2023/06/27 16:37:06;;;;;;;;;;;;;;;;;;5042438;28;20007;-63